createdAt,value
2022-11-13T00:04:02.017Z,21.2
2022-11-13T00:09:26.677Z,21.2
2022-11-13T00:20:17.466Z,21.2
2022-11-13T01:30:14.066Z,21.1
2022-11-13T01:35:51.363Z,21.1
2022-11-13T01:57:36.914Z,21.1
2022-11-13T02:03:15.670Z,21.1
2022-11-13T02:08:53.415Z,21.1
2022-11-13T02:19:55.213Z,21.1
2022-11-13T02:25:34.728Z,21.1
2022-11-13T02:31:02.351Z,21.1
2022-11-13T02:36:09.572Z,21.1
2022-11-13T02:41:14.445Z,21.1
2022-11-13T02:46:37.591Z,21.1
2022-11-13T02:52:15.727Z,21.1
2022-11-13T02:57:58.610Z,21.1
2022-11-13T03:04:12.316Z,21.1
2022-11-13T03:10:04.196Z,21.1
2022-11-13T03:15:25.906Z,21.1
2022-11-13T03:20:48.672Z,21
2022-11-13T03:26:17.013Z,21.1
2022-11-13T03:31:22.789Z,21.1
2022-11-13T03:36:35.825Z,21
2022-11-13T03:41:58.073Z,21
2022-11-13T03:47:35.860Z,21.1
2022-11-13T03:53:19.977Z,21
2022-11-13T03:59:03.655Z,21
2022-11-13T04:04:41.284Z,21
2022-11-13T04:10:06.650Z,21
2022-11-13T04:15:45.000Z,21
2022-11-13T04:21:22.246Z,21
2022-11-13T04:26:59.684Z,21
2022-11-13T04:32:37.342Z,20.9
2022-11-13T04:38:15.142Z,21
2022-11-13T04:43:40.451Z,20.9
2022-11-13T04:49:19.013Z,20.9
2022-11-13T04:55:01.714Z,20.9
2022-11-13T05:00:39.338Z,20.9
2022-11-13T05:06:02.208Z,20.9
2022-11-13T05:11:40.404Z,20.9
2022-11-13T05:17:04.456Z,20.9
2022-11-13T05:22:43.199Z,20.9
2022-11-13T05:28:24.296Z,20.9
2022-11-13T05:34:05.682Z,20.9
2022-11-13T05:39:43.594Z,20.9
2022-11-13T05:45:06.586Z,20.9
2022-11-13T05:50:45.006Z,20.9
2022-11-13T05:56:23.363Z,20.9
2022-11-13T06:02:01.288Z,20.9
2022-11-13T06:07:41.343Z,20.9
2022-11-13T06:13:19.513Z,20.9
2022-11-13T06:18:59.843Z,20.9
2022-11-13T06:24:37.932Z,20.9
2022-11-13T06:30:00.803Z,20.9
2022-11-13T06:35:38.410Z,20.9
2022-11-13T06:41:02.963Z,20.9
2022-11-13T06:46:26.295Z,20.9
2022-11-13T06:51:54.839Z,20.8
2022-11-13T06:57:17.885Z,20.8
2022-11-13T07:02:42.756Z,20.8
2022-11-13T07:08:05.783Z,20.8
2022-11-13T07:13:44.350Z,20.8
2022-11-13T07:19:45.222Z,20.8
2022-11-13T07:25:24.091Z,20.8
2022-11-13T07:30:52.957Z,20.8
2022-11-13T07:36:30.876Z,20.8
2022-11-13T07:41:37.781Z,20.8
2022-11-13T07:47:28.112Z,20.8
2022-11-13T07:52:58.890Z,20.8
2022-11-13T07:58:09.221Z,20.8
2022-11-13T08:03:33.921Z,20.7
2022-11-13T08:08:58.770Z,20.7
2022-11-13T08:13:50.269Z,20.7
2022-11-13T08:18:59.393Z,20.6
2022-11-13T08:24:09.423Z,20.6
2022-11-13T08:29:20.790Z,20.6
2022-11-13T08:35:00.146Z,20.6
2022-11-13T08:40:40.874Z,20.6
2022-11-13T08:46:17.952Z,20.6
2022-11-13T08:51:46.894Z,20.6
2022-11-13T08:57:29.783Z,20.6
2022-11-13T09:03:07.869Z,20.6
2022-11-13T09:08:51.114Z,20.6
2022-11-13T09:14:34.177Z,20.6
2022-11-13T09:20:02.246Z,20.6
2022-11-13T09:25:32.792Z,20.6
2022-11-13T09:31:02.741Z,20.6
2022-11-13T09:36:25.050Z,20.6
2022-11-13T09:41:55.130Z,20.5
2022-11-13T09:47:09.098Z,20.5
2022-11-13T09:52:36.869Z,20.5
2022-11-13T09:58:15.971Z,20.5
2022-11-13T10:04:14.151Z,20.5
2022-11-13T10:09:52.795Z,20.5
2022-11-13T10:15:31.651Z,20.5
2022-11-13T10:20:54.066Z,20.5
2022-11-13T10:26:49.914Z,20.5
2022-11-13T10:32:20.397Z,20.5
2022-11-13T10:37:43.240Z,20.5
2022-11-13T10:43:28.623Z,20.4
2022-11-13T10:49:27.598Z,20.5
2022-11-13T10:54:50.578Z,20.4
2022-11-13T11:00:15.320Z,20.4
2022-11-13T11:05:38.768Z,20.4
2022-11-13T11:11:53.279Z,20.4
2022-11-13T11:17:36.423Z,20.4
2022-11-13T11:23:14.252Z,20.4
2022-11-13T11:28:55.319Z,20.4
2022-11-13T11:34:32.459Z,20.4
2022-11-13T11:39:55.357Z,20.4
2022-11-13T11:45:33.505Z,20.4
2022-11-13T11:51:03.076Z,20.4
2022-11-13T11:56:41.394Z,20.4
2022-11-13T12:02:19.528Z,20.4
2022-11-13T12:07:42.675Z,20.4
2022-11-13T12:13:20.716Z,20.4
2022-11-13T12:18:44.351Z,20.4
2022-11-13T12:24:21.923Z,20.4
2022-11-13T12:30:04.611Z,20.4
2022-11-13T12:35:46.485Z,20.4
2022-11-13T12:41:26.998Z,20.4
2022-11-13T12:46:49.900Z,20.4
2022-11-13T12:52:18.752Z,20.4
2022-11-13T12:57:30.286Z,20.4
2022-11-13T13:03:40.602Z,20.4
2022-11-13T13:09:19.350Z,20.3
2022-11-13T13:14:46.686Z,20.4
2022-11-13T13:19:54.637Z,20.4
2022-11-13T13:24:46.333Z,20.3
2022-11-13T13:30:08.701Z,20.4
2022-11-13T13:35:24.826Z,20.3
2022-11-13T13:40:38.201Z,20.3
2022-11-13T13:46:16.661Z,20.3
2022-11-13T13:51:24.877Z,20.3
2022-11-13T13:56:54.718Z,20.3
2022-11-13T14:02:44.542Z,20.3
2022-11-13T14:08:23.683Z,20.3
2022-11-13T14:14:02.269Z,20.3
2022-11-13T14:19:39.742Z,20.3
2022-11-13T14:25:03.207Z,20.3
2022-11-13T14:30:41.423Z,20.3
2022-11-13T14:36:23.227Z,20.3
2022-11-13T14:42:01.655Z,20.3
2022-11-13T14:47:41.447Z,20.3
2022-11-13T14:53:20.098Z,20.3
2022-11-13T14:59:18.468Z,20.3
2022-11-13T15:04:11.483Z,20.3
2022-11-13T15:09:03.803Z,20.3
2022-11-13T15:14:11.089Z,20.3
2022-11-13T15:19:02.445Z,20.3
2022-11-13T15:24:46.289Z,20.3
2022-11-13T15:30:10.344Z,20.2
2022-11-13T15:35:01.893Z,20.2
2022-11-13T15:40:31.177Z,20.2
2022-11-13T15:46:00.503Z,20.2
2022-11-13T15:51:40.733Z,20.2
2022-11-13T15:57:06.350Z,20.2
2022-11-13T16:02:34.478Z,20.2
2022-11-13T16:08:36.301Z,20.2
2022-11-13T16:13:44.438Z,20.2
2022-11-13T16:19:33.423Z,20.1
2022-11-13T16:24:57.506Z,20.1
2022-11-13T16:31:06.892Z,20.1
2022-11-13T16:36:29.725Z,20.1
2022-11-13T16:41:51.830Z,20.1
2022-11-13T16:47:36.892Z,20.1
2022-11-13T16:53:15.575Z,20.3
2022-11-13T16:58:53.848Z,20.7
2022-11-13T17:04:24.292Z,21.1
2022-11-13T17:10:33.559Z,21.3
2022-11-13T17:16:10.746Z,21.6
2022-11-13T17:21:33.612Z,21.8
2022-11-13T17:27:12.618Z,22
2022-11-13T17:32:35.348Z,22.1
2022-11-13T17:38:14.809Z,22.2
2022-11-13T17:43:58.226Z,22.3
2022-11-13T17:49:07.508Z,22.3
2022-11-13T17:54:37.013Z,22.4
2022-11-13T18:00:18.140Z,22.6
2022-11-13T18:05:25.041Z,22.8
2022-11-13T18:11:08.420Z,22.9
2022-11-13T18:16:31.756Z,23.1
2022-11-13T18:22:30.399Z,23.1
2022-11-13T18:28:13.609Z,23.1
2022-11-13T18:33:52.461Z,23.1
2022-11-13T18:39:33.367Z,23
2022-11-13T18:45:12.316Z,22.9
2022-11-13T18:50:50.940Z,22.9
2022-11-13T18:56:13.548Z,22.8
2022-11-13T19:01:55.958Z,22.8
2022-11-13T19:08:03.534Z,22.7
2022-11-13T19:13:45.546Z,22.7
2022-11-13T19:19:13.840Z,22.6
2022-11-13T19:24:54.709Z,22.6
2022-11-13T19:30:32.289Z,22.5
2022-11-13T19:35:54.602Z,22.4
2022-11-13T19:41:35.761Z,22.4
2022-11-13T19:47:14.053Z,22.3
2022-11-13T19:52:36.881Z,22.3
2022-11-13T19:58:19.231Z,22.3
2022-11-13T20:03:41.809Z,22.2
2022-11-13T20:09:05.565Z,22.2
2022-11-13T20:14:12.184Z,22.1
2022-11-13T20:19:50.548Z,22.1
2022-11-13T20:25:29.034Z,22.1
2022-11-13T20:30:55.986Z,22
2022-11-13T20:36:33.825Z,22
2022-11-13T20:42:17.257Z,22
2022-11-13T20:47:55.560Z,22
2022-11-13T20:53:37.404Z,22
2022-11-13T20:59:05.017Z,22
2022-11-13T21:04:47.828Z,22.1
2022-11-13T21:10:25.430Z,22.1
2022-11-13T21:16:03.892Z,22.1
2022-11-13T21:21:43.004Z,22.1
2022-11-13T21:27:20.543Z,22.1
2022-11-13T21:33:05.607Z,22.1
2022-11-13T21:38:48.355Z,22.1
2022-11-13T21:44:26.479Z,22.1
2022-11-13T21:50:04.830Z,22.1
2022-11-13T21:55:42.608Z,22.1
2022-11-13T22:01:23.580Z,22.1
2022-11-13T22:07:02.178Z,22.1
2022-11-13T22:12:42.533Z,22
2022-11-13T22:18:20.088Z,22.1
2022-11-13T22:24:02.256Z,22
2022-11-13T22:29:40.339Z,22
2022-11-13T22:35:18.597Z,22
2022-11-13T22:40:56.196Z,22
2022-11-13T22:47:08.820Z,22
2022-11-13T22:52:46.884Z,21.9
2022-11-13T22:58:25.148Z,22
2022-11-13T23:03:54.118Z,21.9
2022-11-13T23:09:17.697Z,21.9
2022-11-13T23:14:56.485Z,21.9
2022-11-13T23:20:09.342Z,21.9
2022-11-13T23:25:47.092Z,21.9
2022-11-13T23:31:13.867Z,21.9
2022-11-13T23:37:17.520Z,21.9
2022-11-13T23:43:12.547Z,21.9
2022-11-13T23:49:14.691Z,21.9
2022-11-13T23:54:52.570Z,21.9
